sensor_id;sensor_type;location;lat;lon;timestamp;temperature;humidity
22161;DHT22;49035;48.812;11.762;2023-01-08T00:01:08;-2.00;99.90
22161;DHT22;49035;48.812;11.762;2023-01-08T00:03:35;-2.00;99.90
22161;DHT22;49035;48.812;11.762;2023-01-08T00:06:03;-1.90;99.90
22161;DHT22;49035;48.812;11.762;2023-01-08T00:08:29;-1.60;99.90
22161;DHT22;49035;48.812;11.762;2023-01-08T00:10:55;-1.40;99.90
22161;DHT22;49035;48.812;11.762;2023-01-08T00:13:21;-1.30;99.90
22161;DHT22;49035;48.812;11.762;2023-01-08T00:15:47;-1.40;99.90
22161;DHT22;49035;48.812;11.762;2023-01-08T00:18:12;-1.40;99.90
22161;DHT22;49035;48.812;11.762;2023-01-08T00:20:42;-1.50;99.90
22161;DHT22;49035;48.812;11.762;2023-01-08T00:23:16;-1.50;99.90
22161;DHT22;49035;48.812;11.762;2023-01-08T00:25:42;-1.60;99.90
22161;DHT22;49035;48.812;11.762;2023-01-08T00:28:08;-1.60;99.90
22161;DHT22;49035;48.812;11.762;2023-01-08T00:30:34;-1.70;99.90
22161;DHT22;49035;48.812;11.762;2023-01-08T00:33:00;-1.80;99.90
22161;DHT22;49035;48.812;11.762;2023-01-08T00:35:25;-1.80;99.90
22161;DHT22;49035;48.812;11.762;2023-01-08T00:37:51;-1.90;99.90
22161;DHT22;49035;48.812;11.762;2023-01-08T00:40:16;-1.90;99.90
22161;DHT22;49035;48.812;11.762;2023-01-08T00:42:42;-2.00;99.90
22161;DHT22;49035;48.812;11.762;2023-01-08T00:45:08;-2.10;99.90
22161;DHT22;49035;48.812;11.762;2023-01-08T00:47:34;-2.20;99.90
22161;DHT22;49035;48.812;11.762;2023-01-08T00:49:59;-2.20;99.90
22161;DHT22;49035;48.812;11.762;2023-01-08T00:52:25;-2.30;99.90
22161;DHT22;49035;48.812;11.762;2023-01-08T00:54:51;-2.40;99.90
22161;DHT22;49035;48.812;11.762;2023-01-08T00:57:16;-2.40;99.90
22161;DHT22;49035;48.812;11.762;2023-01-08T00:59:42;-2.40;99.90
22161;DHT22;49035;48.812;11.762;2023-01-08T01:02:08;-2.40;99.90
22161;DHT22;49035;48.812;11.762;2023-01-08T01:04:34;-2.40;99.90
22161;DHT22;49035;48.812;11.762;2023-01-08T01:07:00;-2.30;99.90
22161;DHT22;49035;48.812;11.762;2023-01-08T01:09:25;-2.30;99.90
22161;DHT22;49035;48.812;11.762;2023-01-08T01:11:51;-2.30;99.90
22161;DHT22;49035;48.812;11.762;2023-01-08T01:14:16;-2.30;99.90
22161;DHT22;49035;48.812;11.762;2023-01-08T01:16:42;-2.40;99.90
22161;DHT22;49035;48.812;11.762;2023-01-08T01:19:08;-2.60;99.90
22161;DHT22;49035;48.812;11.762;2023-01-08T01:21:34;-2.60;99.90
22161;DHT22;49035;48.812;11.762;2023-01-08T01:24:01;-2.60;99.90
22161;DHT22;49035;48.812;11.762;2023-01-08T01:26:27;-2.60;99.90
22161;DHT22;49035;48.812;11.762;2023-01-08T01:28:55;-2.60;99.90
22161;DHT22;49035;48.812;11.762;2023-01-08T01:31:22;-2.50;99.90
22161;DHT22;49035;48.812;11.762;2023-01-08T01:33:49;-2.30;99.90
22161;DHT22;49035;48.812;11.762;2023-01-08T01:36:15;-2.10;99.90
22161;DHT22;49035;48.812;11.762;2023-01-08T01:38:43;-2.20;99.90
22161;DHT22;49035;48.812;11.762;2023-01-08T01:41:24;-2.10;99.90
22161;DHT22;49035;48.812;11.762;2023-01-08T01:43:50;-2.20;99.90
22161;DHT22;49035;48.812;11.762;2023-01-08T01:46:35;-2.20;99.90
22161;DHT22;49035;48.812;11.762;2023-01-08T01:49:10;-2.20;99.90
22161;DHT22;49035;48.812;11.762;2023-01-08T01:51:40;-1.90;99.90
22161;DHT22;49035;48.812;11.762;2023-01-08T01:54:09;-1.50;99.90
22161;DHT22;49035;48.812;11.762;2023-01-08T01:56:35;-1.70;99.90
22161;DHT22;49035;48.812;11.762;2023-01-08T01:59:02;-1.80;99.90
22161;DHT22;49035;48.812;11.762;2023-01-08T02:01:29;-1.90;99.90
22161;DHT22;49035;48.812;11.762;2023-01-08T02:03:55;-1.90;99.90
22161;DHT22;49035;48.812;11.762;2023-01-08T02:06:37;-2.00;99.90
22161;DHT22;49035;48.812;11.762;2023-01-08T02:09:36;-1.90;99.90
22161;DHT22;49035;48.812;11.762;2023-01-08T02:12:07;-1.60;99.90
22161;DHT22;49035;48.812;11.762;2023-01-08T02:17:47;-1.90;99.90
22161;DHT22;49035;48.812;11.762;2023-01-08T02:31:07;-2.20;99.90
22161;DHT22;49035;48.812;11.762;2023-01-08T02:33:33;-2.10;99.90
22161;DHT22;49035;48.812;11.762;2023-01-08T02:36:28;-1.90;99.90
22161;DHT22;49035;48.812;11.762;2023-01-08T02:41:48;-2.20;99.90
22161;DHT22;49035;48.812;11.762;2023-01-08T02:44:21;-2.50;99.90
22161;DHT22;49035;48.812;11.762;2023-01-08T02:46:50;-2.50;99.90
22161;DHT22;49035;48.812;11.762;2023-01-08T02:49:18;-2.50;99.90
22161;DHT22;49035;48.812;11.762;2023-01-08T02:51:50;-2.50;99.90
22161;DHT22;49035;48.812;11.762;2023-01-08T02:54:22;-2.40;99.90
22161;DHT22;49035;48.812;11.762;2023-01-08T02:56:54;-2.40;99.90
22161;DHT22;49035;48.812;11.762;2023-01-08T02:59:21;-2.40;99.90
22161;DHT22;49035;48.812;11.762;2023-01-08T03:01:48;-2.30;99.90
22161;DHT22;49035;48.812;11.762;2023-01-08T03:04:19;-2.30;99.90
22161;DHT22;49035;48.812;11.762;2023-01-08T03:06:46;-2.10;99.90
22161;DHT22;49035;48.812;11.762;2023-01-08T03:09:14;-1.90;99.90
22161;DHT22;49035;48.812;11.762;2023-01-08T03:11:49;-1.90;99.90
22161;DHT22;49035;48.812;11.762;2023-01-08T03:14:36;-1.90;99.90
22161;DHT22;49035;48.812;11.762;2023-01-08T03:17:05;-1.90;99.90
22161;DHT22;49035;48.812;11.762;2023-01-08T03:19:39;-1.60;99.90
22161;DHT22;49035;48.812;11.762;2023-01-08T03:22:09;-1.80;99.90
22161;DHT22;49035;48.812;11.762;2023-01-08T03:24:38;-2.00;99.90
22161;DHT22;49035;48.812;11.762;2023-01-08T03:27:06;-2.10;99.90
22161;DHT22;49035;48.812;11.762;2023-01-08T03:29:34;-2.20;99.90
22161;DHT22;49035;48.812;11.762;2023-01-08T03:32:03;-2.40;99.90
22161;DHT22;49035;48.812;11.762;2023-01-08T03:34:31;-2.50;99.90
22161;DHT22;49035;48.812;11.762;2023-01-08T03:36:59;-2.40;99.90
22161;DHT22;49035;48.812;11.762;2023-01-08T03:39:55;-2.30;99.90
22161;DHT22;49035;48.812;11.762;2023-01-08T03:42:22;-2.10;99.90
22161;DHT22;49035;48.812;11.762;2023-01-08T03:44:49;-2.20;99.90
22161;DHT22;49035;48.812;11.762;2023-01-08T03:47:15;-2.20;99.90
22161;DHT22;49035;48.812;11.762;2023-01-08T03:49:42;-2.30;99.90
22161;DHT22;49035;48.812;11.762;2023-01-08T03:52:08;-2.30;99.90
22161;DHT22;49035;48.812;11.762;2023-01-08T03:54:44;-2.30;99.90
22161;DHT22;49035;48.812;11.762;2023-01-08T03:57:10;-2.40;99.90
22161;DHT22;49035;48.812;11.762;2023-01-08T03:59:35;-2.40;99.90
22161;DHT22;49035;48.812;11.762;2023-01-08T04:02:01;-2.40;99.90
22161;DHT22;49035;48.812;11.762;2023-01-08T04:04:26;-2.10;99.90
22161;DHT22;49035;48.812;11.762;2023-01-08T04:06:52;-1.80;99.90
22161;DHT22;49035;48.812;11.762;2023-01-08T04:09:18;-1.70;99.90
22161;DHT22;49035;48.812;11.762;2023-01-08T04:11:43;-1.90;99.90
22161;DHT22;49035;48.812;11.762;2023-01-08T04:14:09;-2.00;99.90
22161;DHT22;49035;48.812;11.762;2023-01-08T04:16:36;-2.20;99.90
22161;DHT22;49035;48.812;11.762;2023-01-08T04:19:02;-2.20;99.90
22161;DHT22;49035;48.812;11.762;2023-01-08T04:21:27;-2.30;99.90
22161;DHT22;49035;48.812;11.762;2023-01-08T04:23:53;-2.00;99.90
22161;DHT22;49035;48.812;11.762;2023-01-08T04:26:19;-2.00;99.90
22161;DHT22;49035;48.812;11.762;2023-01-08T04:28:45;-2.00;99.90
22161;DHT22;49035;48.812;11.762;2023-01-08T04:31:10;-1.90;99.90
22161;DHT22;49035;48.812;11.762;2023-01-08T04:33:36;-1.70;99.90
22161;DHT22;49035;48.812;11.762;2023-01-08T04:36:03;-1.40;99.90
22161;DHT22;49035;48.812;11.762;2023-01-08T04:38:28;-1.30;99.90
22161;DHT22;49035;48.812;11.762;2023-01-08T04:40:58;-1.50;99.90
22161;DHT22;49035;48.812;11.762;2023-01-08T04:43:24;-1.50;99.90
22161;DHT22;49035;48.812;11.762;2023-01-08T04:45:50;-1.30;99.90
22161;DHT22;49035;48.812;11.762;2023-01-08T04:48:16;-1.60;99.90
22161;DHT22;49035;48.812;11.762;2023-01-08T04:50:41;-1.80;99.90
22161;DHT22;49035;48.812;11.762;2023-01-08T04:53:07;-1.80;99.90
22161;DHT22;49035;48.812;11.762;2023-01-08T04:55:33;-1.90;99.90
22161;DHT22;49035;48.812;11.762;2023-01-08T04:57:58;-1.90;99.90
22161;DHT22;49035;48.812;11.762;2023-01-08T05:00:24;-2.00;99.90
22161;DHT22;49035;48.812;11.762;2023-01-08T05:02:50;-2.10;99.90
22161;DHT22;49035;48.812;11.762;2023-01-08T05:05:15;-2.10;99.90
22161;DHT22;49035;48.812;11.762;2023-01-08T05:07:41;-2.10;99.90
22161;DHT22;49035;48.812;11.762;2023-01-08T05:10:07;-2.10;99.90
22161;DHT22;49035;48.812;11.762;2023-01-08T05:12:33;-2.00;99.90
22161;DHT22;49035;48.812;11.762;2023-01-08T05:14:58;-2.00;99.90
22161;DHT22;49035;48.812;11.762;2023-01-08T05:17:24;-2.00;99.90
22161;DHT22;49035;48.812;11.762;2023-01-08T05:19:49;-2.00;99.90
22161;DHT22;49035;48.812;11.762;2023-01-08T05:22:15;-1.60;99.90
22161;DHT22;49035;48.812;11.762;2023-01-08T05:24:40;-1.30;99.90
22161;DHT22;49035;48.812;11.762;2023-01-08T05:27:06;-1.30;99.90
22161;DHT22;49035;48.812;11.762;2023-01-08T05:29:31;-1.20;99.90
22161;DHT22;49035;48.812;11.762;2023-01-08T05:31:57;-1.10;99.90
22161;DHT22;49035;48.812;11.762;2023-01-08T05:34:22;-1.10;99.90
22161;DHT22;49035;48.812;11.762;2023-01-08T05:36:48;-1.10;99.90
22161;DHT22;49035;48.812;11.762;2023-01-08T05:39:14;-1.20;99.90
22161;DHT22;49035;48.812;11.762;2023-01-08T05:41:39;-1.20;99.90
22161;DHT22;49035;48.812;11.762;2023-01-08T05:44:05;-1.40;99.90
22161;DHT22;49035;48.812;11.762;2023-01-08T05:46:30;-1.60;99.90
22161;DHT22;49035;48.812;11.762;2023-01-08T05:48:56;-1.70;99.90
22161;DHT22;49035;48.812;11.762;2023-01-08T05:51:22;-1.80;99.90
22161;DHT22;49035;48.812;11.762;2023-01-08T05:53:47;-1.80;99.90
22161;DHT22;49035;48.812;11.762;2023-01-08T05:56:13;-2.00;99.90
22161;DHT22;49035;48.812;11.762;2023-01-08T05:58:39;-2.10;99.90
22161;DHT22;49035;48.812;11.762;2023-01-08T06:01:07;-2.20;99.90
22161;DHT22;49035;48.812;11.762;2023-01-08T06:03:33;-2.10;99.90
22161;DHT22;49035;48.812;11.762;2023-01-08T06:06:00;-1.90;99.90
22161;DHT22;49035;48.812;11.762;2023-01-08T06:08:27;-1.80;99.90
22161;DHT22;49035;48.812;11.762;2023-01-08T06:10:53;-1.80;99.90
22161;DHT22;49035;48.812;11.762;2023-01-08T06:13:19;-1.80;99.90
22161;DHT22;49035;48.812;11.762;2023-01-08T06:15:45;-1.80;99.90
22161;DHT22;49035;48.812;11.762;2023-01-08T06:18:13;-1.80;99.90
22161;DHT22;49035;48.812;11.762;2023-01-08T06:20:39;-1.90;99.90
22161;DHT22;49035;48.812;11.762;2023-01-08T06:23:04;-2.00;99.90
22161;DHT22;49035;48.812;11.762;2023-01-08T06:25:30;-2.00;99.90
22161;DHT22;49035;48.812;11.762;2023-01-08T06:27:55;-2.00;99.90
22161;DHT22;49035;48.812;11.762;2023-01-08T06:30:21;-2.00;99.90
22161;DHT22;49035;48.812;11.762;2023-01-08T06:32:47;-2.10;99.90
22161;DHT22;49035;48.812;11.762;2023-01-08T06:35:12;-2.10;99.90
22161;DHT22;49035;48.812;11.762;2023-01-08T06:37:38;-2.00;99.90
22161;DHT22;49035;48.812;11.762;2023-01-08T06:40:04;-2.00;99.90
22161;DHT22;49035;48.812;11.762;2023-01-08T06:42:29;-2.00;99.90
22161;DHT22;49035;48.812;11.762;2023-01-08T06:44:55;-2.10;99.90
22161;DHT22;49035;48.812;11.762;2023-01-08T06:47:20;-2.10;99.90
22161;DHT22;49035;48.812;11.762;2023-01-08T06:49:46;-2.10;99.90
22161;DHT22;49035;48.812;11.762;2023-01-08T06:52:11;-2.00;99.90
22161;DHT22;49035;48.812;11.762;2023-01-08T06:54:37;-1.90;99.90
22161;DHT22;49035;48.812;11.762;2023-01-08T06:57:03;-1.80;99.90
22161;DHT22;49035;48.812;11.762;2023-01-08T06:59:28;-1.70;99.90
22161;DHT22;49035;48.812;11.762;2023-01-08T07:01:54;-1.70;99.90
22161;DHT22;49035;48.812;11.762;2023-01-08T07:04:19;-1.70;99.90
22161;DHT22;49035;48.812;11.762;2023-01-08T07:06:45;-1.70;99.90
22161;DHT22;49035;48.812;11.762;2023-01-08T07:09:12;-1.60;99.90
22161;DHT22;49035;48.812;11.762;2023-01-08T07:11:38;-1.40;99.90
22161;DHT22;49035;48.812;11.762;2023-01-08T07:14:04;-1.30;99.90
22161;DHT22;49035;48.812;11.762;2023-01-08T07:16:30;-1.30;99.90
22161;DHT22;49035;48.812;11.762;2023-01-08T07:18:55;-1.30;99.90
22161;DHT22;49035;48.812;11.762;2023-01-08T07:21:22;-1.30;99.90
22161;DHT22;49035;48.812;11.762;2023-01-08T07:23:48;-1.30;99.90
22161;DHT22;49035;48.812;11.762;2023-01-08T07:26:14;-1.20;99.90
22161;DHT22;49035;48.812;11.762;2023-01-08T07:28:40;-1.10;99.90
22161;DHT22;49035;48.812;11.762;2023-01-08T07:31:06;-1.00;99.90
22161;DHT22;49035;48.812;11.762;2023-01-08T07:33:32;-0.90;99.90
22161;DHT22;49035;48.812;11.762;2023-01-08T07:35:58;-0.80;99.90
22161;DHT22;49035;48.812;11.762;2023-01-08T07:38:23;-0.80;99.90
22161;DHT22;49035;48.812;11.762;2023-01-08T07:40:49;-0.70;99.90
22161;DHT22;49035;48.812;11.762;2023-01-08T07:43:15;-0.70;99.90
22161;DHT22;49035;48.812;11.762;2023-01-08T07:45:40;-0.60;99.90
22161;DHT22;49035;48.812;11.762;2023-01-08T07:48:06;-0.50;99.90
22161;DHT22;49035;48.812;11.762;2023-01-08T07:50:36;-0.40;99.90
22161;DHT22;49035;48.812;11.762;2023-01-08T07:53:02;-0.30;99.90
22161;DHT22;49035;48.812;11.762;2023-01-08T07:55:29;-0.20;99.90
22161;DHT22;49035;48.812;11.762;2023-01-08T07:57:55;0.00;99.90
22161;DHT22;49035;48.812;11.762;2023-01-08T08:00:21;0.00;99.90
22161;DHT22;49035;48.812;11.762;2023-01-08T08:02:46;-0.10;99.90
22161;DHT22;49035;48.812;11.762;2023-01-08T08:05:12;-0.10;99.90
22161;DHT22;49035;48.812;11.762;2023-01-08T08:07:38;-0.10;99.90
22161;DHT22;49035;48.812;11.762;2023-01-08T08:10:04;-0.10;99.90
22161;DHT22;49035;48.812;11.762;2023-01-08T08:12:30;-0.10;99.90
22161;DHT22;49035;48.812;11.762;2023-01-08T08:14:56;0.00;99.90
22161;DHT22;49035;48.812;11.762;2023-01-08T08:17:21;0.10;99.90
22161;DHT22;49035;48.812;11.762;2023-01-08T08:19:47;0.20;99.90
22161;DHT22;49035;48.812;11.762;2023-01-08T08:22:13;0.20;99.90
22161;DHT22;49035;48.812;11.762;2023-01-08T08:24:38;0.30;99.90
22161;DHT22;49035;48.812;11.762;2023-01-08T08:27:04;0.40;99.90
22161;DHT22;49035;48.812;11.762;2023-01-08T08:29:30;0.40;99.90
22161;DHT22;49035;48.812;11.762;2023-01-08T08:31:56;0.30;99.90
22161;DHT22;49035;48.812;11.762;2023-01-08T08:34:21;0.30;99.90
22161;DHT22;49035;48.812;11.762;2023-01-08T08:36:48;0.30;99.90
22161;DHT22;49035;48.812;11.762;2023-01-08T08:39:14;0.30;99.90
22161;DHT22;49035;48.812;11.762;2023-01-08T08:41:39;0.30;99.90
22161;DHT22;49035;48.812;11.762;2023-01-08T08:44:07;0.40;99.90
22161;DHT22;49035;48.812;11.762;2023-01-08T08:46:33;0.40;99.90
22161;DHT22;49035;48.812;11.762;2023-01-08T08:48:58;0.40;99.90
22161;DHT22;49035;48.812;11.762;2023-01-08T08:51:24;0.40;99.90
22161;DHT22;49035;48.812;11.762;2023-01-08T08:53:50;0.50;99.90
22161;DHT22;49035;48.812;11.762;2023-01-08T08:56:15;0.40;99.90
22161;DHT22;49035;48.812;11.762;2023-01-08T08:58:41;0.40;99.90
22161;DHT22;49035;48.812;11.762;2023-01-08T09:01:07;0.50;99.90
22161;DHT22;49035;48.812;11.762;2023-01-08T09:03:33;0.80;99.90
22161;DHT22;49035;48.812;11.762;2023-01-08T09:05:59;0.90;99.90
22161;DHT22;49035;48.812;11.762;2023-01-08T09:08:24;1.10;99.90
22161;DHT22;49035;48.812;11.762;2023-01-08T09:10:50;1.20;99.90
22161;DHT22;49035;48.812;11.762;2023-01-08T09:13:16;1.40;99.90
22161;DHT22;49035;48.812;11.762;2023-01-08T09:15:41;1.40;99.90
22161;DHT22;49035;48.812;11.762;2023-01-08T09:18:07;1.50;99.90
22161;DHT22;49035;48.812;11.762;2023-01-08T09:20:33;1.60;99.90
22161;DHT22;49035;48.812;11.762;2023-01-08T09:22:59;1.70;99.90
22161;DHT22;49035;48.812;11.762;2023-01-08T09:25:26;1.80;99.90
22161;DHT22;49035;48.812;11.762;2023-01-08T09:28:03;1.80;99.90
22161;DHT22;49035;48.812;11.762;2023-01-08T09:30:30;1.80;99.90
22161;DHT22;49035;48.812;11.762;2023-01-08T09:32:59;1.80;99.90
22161;DHT22;49035;48.812;11.762;2023-01-08T09:35:26;1.90;99.90
22161;DHT22;49035;48.812;11.762;2023-01-08T09:37:52;2.00;99.90
22161;DHT22;49035;48.812;11.762;2023-01-08T09:40:18;2.00;99.90
22161;DHT22;49035;48.812;11.762;2023-01-08T09:42:52;2.00;99.90
22161;DHT22;49035;48.812;11.762;2023-01-08T09:45:30;2.00;99.90
22161;DHT22;49035;48.812;11.762;2023-01-08T09:47:59;1.80;99.90
22161;DHT22;49035;48.812;11.762;2023-01-08T09:50:27;1.90;99.90
22161;DHT22;49035;48.812;11.762;2023-01-08T09:52:53;2.10;99.90
22161;DHT22;49035;48.812;11.762;2023-01-08T09:55:19;2.30;99.90
22161;DHT22;49035;48.812;11.762;2023-01-08T09:57:46;2.50;99.90
22161;DHT22;49035;48.812;11.762;2023-01-08T10:02:40;2.90;99.90
22161;DHT22;49035;48.812;11.762;2023-01-08T10:05:15;3.00;99.90
22161;DHT22;49035;48.812;11.762;2023-01-08T10:07:41;3.10;99.90
22161;DHT22;49035;48.812;11.762;2023-01-08T10:10:34;3.10;99.90
22161;DHT22;49035;48.812;11.762;2023-01-08T10:13:00;3.20;99.90
22161;DHT22;49035;48.812;11.762;2023-01-08T10:15:26;3.40;99.90
22161;DHT22;49035;48.812;11.762;2023-01-08T10:18:02;3.50;99.90
22161;DHT22;49035;48.812;11.762;2023-01-08T10:20:29;3.60;99.90
22161;DHT22;49035;48.812;11.762;2023-01-08T10:22:55;3.70;99.90
22161;DHT22;49035;48.812;11.762;2023-01-08T10:25:26;3.60;99.90
22161;DHT22;49035;48.812;11.762;2023-01-08T10:28:01;3.60;99.90
22161;DHT22;49035;48.812;11.762;2023-01-08T10:33:02;3.70;99.90
22161;DHT22;49035;48.812;11.762;2023-01-08T10:35:32;3.90;99.90
22161;DHT22;49035;48.812;11.762;2023-01-08T10:37:58;4.10;99.90
22161;DHT22;49035;48.812;11.762;2023-01-08T10:40:29;4.10;99.90
22161;DHT22;49035;48.812;11.762;2023-01-08T10:43:05;4.20;99.90
22161;DHT22;49035;48.812;11.762;2023-01-08T10:45:32;4.30;99.90
22161;DHT22;49035;48.812;11.762;2023-01-08T10:48:01;4.40;99.90
22161;DHT22;49035;48.812;11.762;2023-01-08T10:50:30;4.70;99.90
22161;DHT22;49035;48.812;11.762;2023-01-08T10:53:01;4.80;99.90
22161;DHT22;49035;48.812;11.762;2023-01-08T10:55:33;4.90;99.90
22161;DHT22;49035;48.812;11.762;2023-01-08T10:58:14;5.00;99.90
22161;DHT22;49035;48.812;11.762;2023-01-08T11:00:39;5.00;99.90
22161;DHT22;49035;48.812;11.762;2023-01-08T11:03:30;4.90;99.90
22161;DHT22;49035;48.812;11.762;2023-01-08T11:05:56;4.90;99.90
22161;DHT22;49035;48.812;11.762;2023-01-08T11:08:23;4.90;99.90
22161;DHT22;49035;48.812;11.762;2023-01-08T11:10:57;4.90;99.90
22161;DHT22;49035;48.812;11.762;2023-01-08T11:13:24;4.70;99.90
22161;DHT22;49035;48.812;11.762;2023-01-08T11:16:05;4.60;99.90
22161;DHT22;49035;48.812;11.762;2023-01-08T11:18:42;4.50;99.90
22161;DHT22;49035;48.812;11.762;2023-01-08T11:21:18;4.40;99.90
22161;DHT22;49035;48.812;11.762;2023-01-08T11:23:44;4.40;99.90
22161;DHT22;49035;48.812;11.762;2023-01-08T11:26:20;4.60;99.90
22161;DHT22;49035;48.812;11.762;2023-01-08T11:29:11;4.80;99.90
22161;DHT22;49035;48.812;11.762;2023-01-08T11:34:33;4.80;99.90
22161;DHT22;49035;48.812;11.762;2023-01-08T11:39:34;4.80;99.90
22161;DHT22;49035;48.812;11.762;2023-01-08T12:21:20;6.50;99.90
22161;DHT22;49035;48.812;11.762;2023-01-08T12:24:09;6.50;99.90
22161;DHT22;49035;48.812;11.762;2023-01-08T12:35:20;5.60;99.90
22161;DHT22;49035;48.812;11.762;2023-01-08T12:37:55;5.50;99.90
22161;DHT22;49035;48.812;11.762;2023-01-08T12:40:33;5.40;99.90
22161;DHT22;49035;48.812;11.762;2023-01-08T12:43:06;5.20;99.90
22161;DHT22;49035;48.812;11.762;2023-01-08T12:45:40;5.20;99.90
22161;DHT22;49035;48.812;11.762;2023-01-08T12:48:17;5.00;99.90
22161;DHT22;49035;48.812;11.762;2023-01-08T12:51:08;4.90;99.90
22161;DHT22;49035;48.812;11.762;2023-01-08T12:54:01;4.90;99.90
22161;DHT22;49035;48.812;11.762;2023-01-08T13:01:54;4.90;99.90
22161;DHT22;49035;48.812;11.762;2023-01-08T13:04:21;4.90;99.90
22161;DHT22;49035;48.812;11.762;2023-01-08T13:07:01;5.00;99.90
22161;DHT22;49035;48.812;11.762;2023-01-08T13:09:28;5.10;99.90
22161;DHT22;49035;48.812;11.762;2023-01-08T13:11:55;5.10;99.90
22161;DHT22;49035;48.812;11.762;2023-01-08T13:14:22;5.20;99.90
22161;DHT22;49035;48.812;11.762;2023-01-08T13:17:03;5.20;99.90
22161;DHT22;49035;48.812;11.762;2023-01-08T13:19:41;5.20;99.90
22161;DHT22;49035;48.812;11.762;2023-01-08T13:22:25;5.30;99.90
22161;DHT22;49035;48.812;11.762;2023-01-08T13:24:51;5.30;99.90
22161;DHT22;49035;48.812;11.762;2023-01-08T13:27:31;5.30;99.90
22161;DHT22;49035;48.812;11.762;2023-01-08T13:29:57;5.30;99.90
22161;DHT22;49035;48.812;11.762;2023-01-08T13:32:35;5.30;99.90
22161;DHT22;49035;48.812;11.762;2023-01-08T13:35:20;5.20;99.90
22161;DHT22;49035;48.812;11.762;2023-01-08T13:38:33;5.20;99.90
22161;DHT22;49035;48.812;11.762;2023-01-08T13:40:37;5.20;99.90
22161;DHT22;49035;48.812;11.762;2023-01-08T13:43:17;5.20;99.90
22161;DHT22;49035;48.812;11.762;2023-01-08T13:45:48;5.10;99.90
22161;DHT22;49035;48.812;11.762;2023-01-08T13:48:23;5.10;99.90
22161;DHT22;49035;48.812;11.762;2023-01-08T13:50:50;5.10;99.90
22161;DHT22;49035;48.812;11.762;2023-01-08T13:53:16;5.00;99.90
22161;DHT22;49035;48.812;11.762;2023-01-08T13:58:25;5.00;99.90
22161;DHT22;49035;48.812;11.762;2023-01-08T14:00:52;4.90;99.90
22161;DHT22;49035;48.812;11.762;2023-01-08T14:03:26;4.90;99.90
22161;DHT22;49035;48.812;11.762;2023-01-08T14:06:38;5.00;99.90
22161;DHT22;49035;48.812;11.762;2023-01-08T14:08:52;5.00;99.90
22161;DHT22;49035;48.812;11.762;2023-01-08T14:11:19;5.00;99.90
22161;DHT22;49035;48.812;11.762;2023-01-08T14:13:45;5.00;99.90
22161;DHT22;49035;48.812;11.762;2023-01-08T14:16:13;5.00;99.90
22161;DHT22;49035;48.812;11.762;2023-01-08T14:18:40;4.90;99.90
22161;DHT22;49035;48.812;11.762;2023-01-08T14:21:07;4.70;99.90
22161;DHT22;49035;48.812;11.762;2023-01-08T14:23:44;4.70;99.90
22161;DHT22;49035;48.812;11.762;2023-01-08T14:26:31;4.80;99.90
22161;DHT22;49035;48.812;11.762;2023-01-08T14:29:00;4.70;99.90
22161;DHT22;49035;48.812;11.762;2023-01-08T14:31:27;4.80;99.90
22161;DHT22;49035;48.812;11.762;2023-01-08T14:33:55;4.80;99.90
22161;DHT22;49035;48.812;11.762;2023-01-08T14:36:22;4.70;99.90
22161;DHT22;49035;48.812;11.762;2023-01-08T14:38:48;4.80;99.90
22161;DHT22;49035;48.812;11.762;2023-01-08T14:41:31;4.80;99.90
22161;DHT22;49035;48.812;11.762;2023-01-08T14:44:19;4.80;99.90
22161;DHT22;49035;48.812;11.762;2023-01-08T14:46:45;4.70;99.90
22161;DHT22;49035;48.812;11.762;2023-01-08T14:49:31;4.70;99.90
22161;DHT22;49035;48.812;11.762;2023-01-08T14:51:59;4.70;99.90
22161;DHT22;49035;48.812;11.762;2023-01-08T14:54:37;4.80;99.90
22161;DHT22;49035;48.812;11.762;2023-01-08T14:57:03;4.70;99.90
22161;DHT22;49035;48.812;11.762;2023-01-08T14:59:35;4.70;99.90
22161;DHT22;49035;48.812;11.762;2023-01-08T15:02:14;4.70;99.90
22161;DHT22;49035;48.812;11.762;2023-01-08T15:04:42;4.70;99.90
22161;DHT22;49035;48.812;11.762;2023-01-08T15:07:19;4.70;99.90
22161;DHT22;49035;48.812;11.762;2023-01-08T15:09:58;4.70;99.90
22161;DHT22;49035;48.812;11.762;2023-01-08T15:12:27;4.60;99.90
22161;DHT22;49035;48.812;11.762;2023-01-08T15:14:55;4.50;99.90
22161;DHT22;49035;48.812;11.762;2023-01-08T15:17:23;4.50;99.90
22161;DHT22;49035;48.812;11.762;2023-01-08T15:19:52;4.50;99.90
22161;DHT22;49035;48.812;11.762;2023-01-08T15:22:26;4.50;99.90
22161;DHT22;49035;48.812;11.762;2023-01-08T15:27:24;4.50;99.90
22161;DHT22;49035;48.812;11.762;2023-01-08T15:29:52;4.50;99.90
22161;DHT22;49035;48.812;11.762;2023-01-08T15:32:33;4.40;99.90
22161;DHT22;49035;48.812;11.762;2023-01-08T15:35:14;4.40;99.90
22161;DHT22;49035;48.812;11.762;2023-01-08T15:37:41;4.40;99.90
22161;DHT22;49035;48.812;11.762;2023-01-08T15:40:07;4.30;99.90
22161;DHT22;49035;48.812;11.762;2023-01-08T15:42:35;4.20;99.90
22161;DHT22;49035;48.812;11.762;2023-01-08T15:45:26;4.40;99.90
22161;DHT22;49035;48.812;11.762;2023-01-08T15:48:02;4.40;99.90
22161;DHT22;49035;48.812;11.762;2023-01-08T15:50:28;4.20;99.90
22161;DHT22;49035;48.812;11.762;2023-01-08T15:52:57;4.30;99.90
22161;DHT22;49035;48.812;11.762;2023-01-08T15:55:25;4.20;99.90
22161;DHT22;49035;48.812;11.762;2023-01-08T15:57:51;4.30;99.90
22161;DHT22;49035;48.812;11.762;2023-01-08T16:00:18;4.30;99.90
22161;DHT22;49035;48.812;11.762;2023-01-08T16:02:49;4.30;99.90
22161;DHT22;49035;48.812;11.762;2023-01-08T16:05:16;4.30;99.90
22161;DHT22;49035;48.812;11.762;2023-01-08T16:07:42;4.10;99.90
22161;DHT22;49035;48.812;11.762;2023-01-08T16:10:08;4.10;99.90
22161;DHT22;49035;48.812;11.762;2023-01-08T16:12:34;4.10;99.90
22161;DHT22;49035;48.812;11.762;2023-01-08T16:15:00;4.00;99.90
22161;DHT22;49035;48.812;11.762;2023-01-08T16:17:32;4.00;99.90
22161;DHT22;49035;48.812;11.762;2023-01-08T16:19:59;3.90;99.90
22161;DHT22;49035;48.812;11.762;2023-01-08T16:22:25;4.00;99.90
22161;DHT22;49035;48.812;11.762;2023-01-08T16:24:50;4.10;99.90
22161;DHT22;49035;48.812;11.762;2023-01-08T16:27:16;4.10;99.90
22161;DHT22;49035;48.812;11.762;2023-01-08T16:29:42;4.00;99.90
22161;DHT22;49035;48.812;11.762;2023-01-08T16:32:07;4.00;99.90
22161;DHT22;49035;48.812;11.762;2023-01-08T16:34:33;3.90;99.90
22161;DHT22;49035;48.812;11.762;2023-01-08T16:36:58;3.90;99.90
22161;DHT22;49035;48.812;11.762;2023-01-08T16:39:24;3.70;99.90
22161;DHT22;49035;48.812;11.762;2023-01-08T16:41:50;3.70;99.90
22161;DHT22;49035;48.812;11.762;2023-01-08T16:44:23;3.70;99.90
22161;DHT22;49035;48.812;11.762;2023-01-08T16:46:49;3.60;99.90
22161;DHT22;49035;48.812;11.762;2023-01-08T16:49:15;3.10;99.90
22161;DHT22;49035;48.812;11.762;2023-01-08T16:51:41;2.90;99.90
22161;DHT22;49035;48.812;11.762;2023-01-08T16:54:13;2.80;99.90
22161;DHT22;49035;48.812;11.762;2023-01-08T16:56:39;2.80;99.90
22161;DHT22;49035;48.812;11.762;2023-01-08T16:59:05;2.90;99.90